createdAt,value
2023-01-19T00:01:43.681Z,14.57
2023-01-19T00:03:46.134Z,15.98
2023-01-19T00:07:50.459Z,14.25
2023-01-19T00:09:52.726Z,15.57
2023-01-19T00:11:54.875Z,15.35
2023-01-19T00:13:58.778Z,19.95
2023-01-19T00:16:00.960Z,18.48
2023-01-19T00:18:03.169Z,19.10
2023-01-19T00:20:05.560Z,15.18
2023-01-19T00:22:07.763Z,18.77
2023-01-19T00:24:11.541Z,16.08
2023-01-19T00:26:16.926Z,19.75
2023-01-19T00:28:19.946Z,18.10
2023-01-19T00:30:22.110Z,18.95
2023-01-19T00:32:24.233Z,20.48
2023-01-19T00:34:26.564Z,16.95
2023-01-19T00:36:28.700Z,21.48
2023-01-19T00:38:30.939Z,18.45
2023-01-19T00:40:33.174Z,16.63
2023-01-19T00:42:41.580Z,17.95
2023-01-19T00:44:43.823Z,21.20
2023-01-19T00:46:45.951Z,22.20
2023-01-19T00:48:48.070Z,17.85
2023-01-19T00:50:50.261Z,17.63
2023-01-19T00:52:53.544Z,23.45
2023-01-19T00:54:55.663Z,19.02
2023-01-19T00:56:57.845Z,19.35
2023-01-19T00:59:00.671Z,18.65
2023-01-19T01:01:04.743Z,21.33
2023-01-19T01:03:07.233Z,16.08
2023-01-19T01:07:14.209Z,18.08
2023-01-19T01:09:16.372Z,21.10
2023-01-19T01:11:18.502Z,19.92
2023-01-19T01:13:21.979Z,18.42
2023-01-19T01:15:26.999Z,18.45
2023-01-19T01:17:29.098Z,20.63
2023-01-19T01:19:31.294Z,17.85
2023-01-19T01:21:34.699Z,18.55
2023-01-19T01:23:36.902Z,19.50
2023-01-19T01:25:39.169Z,20.48
2023-01-19T01:27:42.319Z,17.40
2023-01-19T01:29:46.550Z,20.05
2023-01-19T01:31:48.761Z,16.70
2023-01-19T01:33:50.988Z,23.75
2023-01-19T01:35:53.847Z,18.27
2023-01-19T01:37:59.101Z,14.93
2023-01-19T01:40:01.276Z,19.55
2023-01-19T01:42:04.235Z,19.77
2023-01-19T01:44:26.298Z,17.30
2023-01-19T01:46:30.132Z,17.15
2023-01-19T01:48:33.448Z,16.50
2023-01-19T01:50:37.760Z,16.23
2023-01-19T01:52:43.824Z,14.60
2023-01-19T01:55:07.213Z,15.60
2023-01-19T01:57:12.414Z,18.83
2023-01-19T01:59:25.920Z,15.70
2023-01-19T02:01:47.069Z,15.32
2023-01-19T02:03:49.253Z,16.92
2023-01-19T02:05:51.702Z,18.00
2023-01-19T02:10:33.437Z,22.33
2023-01-19T02:12:54.040Z,15.98
2023-01-19T02:14:56.147Z,19.90
2023-01-19T02:16:58.520Z,15.93
2023-01-19T02:19:01.261Z,17.27
2023-01-19T02:21:20.087Z,15.80
2023-01-19T02:23:31.907Z,17.02
2023-01-19T02:25:34.189Z,14.07
2023-01-19T02:27:37.821Z,17.77
2023-01-19T02:29:40.331Z,16.73
2023-01-19T02:33:44.607Z,15.98
2023-01-19T02:35:47.435Z,18.88
2023-01-19T02:37:49.768Z,18.70
2023-01-19T02:39:59.817Z,16.00
2023-01-19T02:42:04.075Z,17.35
2023-01-19T02:44:07.506Z,18.40
2023-01-19T02:46:09.671Z,16.45
2023-01-19T02:48:11.826Z,17.40
2023-01-19T02:50:32.856Z,15.77
2023-01-19T02:52:35.006Z,14.70
2023-01-19T02:54:41.867Z,14.25
2023-01-19T02:56:49.820Z,11.93
2023-01-19T02:58:57.430Z,12.80
2023-01-19T03:01:02.377Z,11.43
2023-01-19T03:03:04.952Z,12.25
2023-01-19T03:05:13.953Z,14.45
2023-01-19T03:07:28.868Z,11.38
2023-01-19T03:09:49.669Z,8.90
2023-01-19T03:11:54.995Z,12.07
2023-01-19T03:14:08.812Z,14.05
2023-01-19T03:16:23.240Z,9.63
2023-01-19T03:18:27.029Z,8.95
2023-01-19T03:20:29.686Z,11.93
2023-01-19T03:22:32.624Z,11.45
2023-01-19T03:24:40.103Z,11.43
2023-01-19T03:26:44.585Z,12.45
2023-01-19T03:28:48.596Z,14.27
2023-01-19T03:30:55.571Z,8.70
2023-01-19T03:33:00.800Z,11.07
2023-01-19T03:35:04.911Z,9.23
2023-01-19T03:37:08.308Z,8.27
2023-01-19T03:39:11.709Z,12.45
2023-01-19T03:41:16.758Z,9.27
2023-01-19T03:43:19.391Z,12.23
2023-01-19T03:45:22.662Z,11.43
2023-01-19T03:47:25.978Z,8.48
2023-01-19T03:49:31.281Z,9.23
2023-01-19T03:51:36.101Z,11.27
2023-01-19T03:53:38.356Z,9.10
2023-01-19T03:55:41.968Z,9.15
2023-01-19T03:57:44.121Z,11.90
2023-01-19T03:59:46.295Z,10.68
2023-01-19T04:01:48.927Z,9.63
2023-01-19T04:03:51.873Z,13.70
2023-01-19T04:05:54.016Z,14.45
2023-01-19T04:07:56.144Z,12.50
2023-01-19T04:09:58.267Z,14.93
2023-01-19T04:12:01.963Z,10.85
2023-01-19T04:14:04.505Z,13.77
2023-01-19T04:18:09.650Z,12.20
2023-01-19T04:20:11.942Z,12.55
2023-01-19T04:22:14.091Z,14.13
2023-01-19T04:24:16.288Z,14.23
2023-01-19T04:26:18.516Z,15.38
2023-01-19T04:28:20.674Z,11.38
2023-01-19T04:30:22.798Z,13.20
2023-01-19T04:32:24.974Z,11.88
2023-01-19T04:34:27.134Z,14.82
2023-01-19T04:36:29.359Z,10.90
2023-01-19T04:38:31.573Z,13.98
2023-01-19T04:40:33.725Z,15.02
2023-01-19T04:42:35.865Z,13.00
2023-01-19T04:44:38.092Z,15.60
2023-01-19T04:46:40.298Z,16.50
2023-01-19T04:48:42.554Z,13.82
2023-01-19T04:50:44.781Z,15.23
2023-01-19T04:52:47.096Z,16.33
2023-01-19T04:54:49.246Z,15.25
2023-01-19T04:56:51.462Z,15.68
2023-01-19T04:58:53.645Z,14.25
2023-01-19T05:00:55.843Z,12.88
2023-01-19T05:02:58.265Z,14.07
2023-01-19T05:07:02.678Z,16.58
2023-01-19T05:09:04.879Z,14.15
2023-01-19T05:11:07.063Z,16.05
2023-01-19T05:13:09.202Z,13.85
2023-01-19T05:15:11.494Z,14.80
2023-01-19T05:17:13.892Z,16.90
2023-01-19T05:19:16.088Z,17.75
2023-01-19T05:21:18.196Z,15.18
2023-01-19T05:23:20.727Z,11.25
2023-01-19T05:27:24.982Z,16.83
2023-01-19T05:29:27.132Z,15.13
2023-01-19T05:31:29.366Z,17.33
2023-01-19T05:33:31.619Z,15.57
2023-01-19T05:35:36.318Z,16.85
2023-01-19T05:37:39.019Z,17.30
2023-01-19T05:39:41.184Z,16.95
2023-01-19T05:41:45.474Z,15.63
2023-01-19T05:43:47.701Z,18.25
2023-01-19T05:45:49.805Z,20.15
2023-01-19T05:47:51.946Z,17.10
2023-01-19T05:49:54.160Z,23.05
2023-01-19T05:51:56.474Z,20.60
2023-01-19T05:53:58.670Z,19.10
2023-01-19T05:56:05.127Z,15.90
2023-01-19T05:58:07.309Z,19.85
2023-01-19T06:00:09.810Z,15.68
2023-01-19T06:02:12.207Z,17.48
2023-01-19T06:04:14.548Z,17.83
2023-01-19T06:06:17.176Z,17.23
2023-01-19T06:08:19.377Z,17.10
2023-01-19T06:10:21.508Z,21.20
2023-01-19T06:12:24.002Z,18.83
2023-01-19T06:16:28.589Z,18.83
2023-01-19T06:18:30.815Z,23.98
2023-01-19T06:20:33.010Z,20.63
2023-01-19T06:22:35.163Z,18.63
2023-01-19T06:24:37.298Z,17.80
2023-01-19T06:26:39.603Z,19.60
2023-01-19T06:28:41.722Z,18.30
2023-01-19T06:30:43.870Z,22.05
2023-01-19T06:32:46.222Z,17.70
2023-01-19T06:36:51.214Z,17.27
2023-01-19T06:38:53.441Z,22.15
2023-01-19T06:41:02.605Z,23.45
2023-01-19T06:43:04.771Z,20.05
2023-01-19T06:45:07.235Z,19.38
2023-01-19T06:49:18.197Z,21.05
2023-01-19T06:51:20.326Z,20.02
2023-01-19T06:53:22.558Z,20.67
2023-01-19T06:55:25.373Z,20.77
2023-01-19T06:57:30.196Z,21.23
2023-01-19T06:59:32.353Z,22.58
2023-01-19T07:01:34.616Z,21.50
2023-01-19T07:03:38.073Z,20.77
2023-01-19T07:05:40.218Z,18.48
2023-01-19T07:07:43.221Z,17.42
2023-01-19T07:09:45.398Z,16.63
2023-01-19T07:11:48.442Z,19.70
2023-01-19T07:13:54.529Z,24.17
2023-01-19T07:15:56.772Z,17.77
2023-01-19T07:17:59.409Z,17.23
2023-01-19T07:20:01.803Z,19.58
2023-01-19T07:22:03.977Z,18.63
2023-01-19T07:24:06.292Z,16.40
2023-01-19T07:26:08.408Z,17.45
2023-01-19T07:28:11.313Z,18.20
2023-01-19T07:30:16.132Z,16.60
2023-01-19T07:32:18.270Z,18.13
2023-01-19T07:34:21.213Z,18.52
2023-01-19T07:36:23.348Z,15.98
2023-01-19T07:38:25.532Z,17.48
2023-01-19T07:40:28.182Z,22.05
2023-01-19T07:42:30.348Z,16.50
2023-01-19T07:44:32.523Z,20.17
2023-01-19T07:46:34.695Z,16.20
2023-01-19T07:48:36.887Z,15.70
2023-01-19T07:50:39.052Z,17.48
2023-01-19T07:52:41.242Z,17.55
2023-01-19T07:54:43.605Z,18.10
2023-01-19T07:56:45.765Z,20.00
2023-01-19T07:58:49.862Z,19.02
2023-01-19T08:00:52.113Z,14.85
2023-01-19T08:02:59.772Z,17.77
2023-01-19T08:05:02.928Z,14.82
2023-01-19T08:07:05.132Z,15.18
2023-01-19T08:09:07.462Z,15.48
2023-01-19T08:11:09.637Z,15.25
2023-01-19T08:13:11.794Z,15.32
2023-01-19T08:15:14.646Z,16.85
2023-01-19T08:17:17.134Z,21.40
2023-01-19T08:21:21.669Z,17.40
2023-01-19T08:23:23.851Z,16.73
2023-01-19T08:25:27.393Z,18.42
2023-01-19T08:27:30.766Z,16.52
2023-01-19T08:29:33.735Z,18.42
2023-01-19T08:31:36.026Z,17.63
2023-01-19T08:33:38.334Z,14.70
2023-01-19T08:35:41.908Z,15.27
2023-01-19T08:37:44.066Z,14.48
2023-01-19T08:39:46.228Z,16.88
2023-01-19T08:41:48.377Z,18.25
2023-01-19T08:43:50.560Z,17.05
2023-01-19T08:45:53.489Z,15.73
2023-01-19T08:47:57.495Z,19.48
2023-01-19T08:49:59.638Z,15.45
2023-01-19T08:52:03.035Z,20.30
2023-01-19T08:54:05.510Z,16.92
2023-01-19T08:58:14.502Z,19.00
2023-01-19T09:00:16.874Z,14.77
2023-01-19T09:02:19.029Z,15.63
2023-01-19T09:04:21.240Z,17.73
2023-01-19T09:06:25.255Z,15.45
2023-01-19T09:08:27.437Z,14.27
2023-01-19T09:10:31.626Z,13.70
2023-01-19T09:12:33.758Z,16.38
2023-01-19T09:14:35.882Z,12.75
2023-01-19T09:16:38.064Z,12.90
2023-01-19T09:18:40.398Z,19.73
2023-01-19T09:20:43.218Z,15.40
2023-01-19T09:22:45.543Z,11.30
2023-01-19T09:24:47.696Z,12.65
2023-01-19T09:26:49.802Z,13.55
2023-01-19T09:28:51.999Z,15.23
2023-01-19T09:30:54.348Z,12.55
2023-01-19T09:32:58.043Z,14.23
2023-01-19T09:35:01.533Z,15.38
2023-01-19T09:37:03.817Z,13.77
2023-01-19T09:39:06.427Z,13.90
2023-01-19T09:43:13.505Z,10.40
2023-01-19T09:45:17.868Z,13.52
2023-01-19T09:47:22.346Z,13.20
2023-01-19T09:49:32.784Z,13.10
2023-01-19T09:51:37.115Z,12.32
2023-01-19T09:53:50.413Z,14.23
2023-01-19T09:55:52.598Z,13.00
2023-01-19T09:57:55.210Z,14.07
2023-01-19T10:02:07.768Z,11.93
2023-01-19T10:04:29.932Z,13.90
2023-01-19T10:06:32.394Z,11.27
2023-01-19T10:08:55.765Z,10.55
2023-01-19T10:10:59.078Z,11.85
2023-01-19T10:13:13.652Z,11.73
2023-01-19T10:15:15.870Z,11.98
2023-01-19T10:17:23.935Z,10.85
2023-01-19T10:19:38.047Z,11.50
2023-01-19T10:21:42.720Z,14.50
2023-01-19T10:23:48.211Z,9.70
2023-01-19T10:25:51.860Z,11.57
2023-01-19T10:29:56.377Z,13.90
2023-01-19T10:32:09.721Z,11.50
2023-01-19T10:34:21.589Z,10.98
2023-01-19T10:36:29.720Z,11.70
2023-01-19T10:38:33.901Z,9.52
2023-01-19T10:40:49.013Z,9.68
2023-01-19T10:42:51.267Z,9.70
2023-01-19T10:44:53.423Z,11.63
2023-01-19T10:46:57.004Z,10.40
2023-01-19T10:48:59.266Z,10.40
2023-01-19T10:51:05.648Z,12.90
2023-01-19T10:53:18.902Z,9.73
2023-01-19T10:55:31.412Z,8.50
2023-01-19T10:57:37.551Z,10.48
2023-01-19T10:59:39.684Z,10.13
2023-01-19T11:01:41.953Z,9.27
2023-01-19T11:03:44.465Z,9.10
2023-01-19T11:05:46.667Z,8.52
2023-01-19T11:07:48.904Z,11.35
2023-01-19T11:10:11.083Z,9.95
2023-01-19T11:12:17.463Z,8.98
2023-01-19T11:14:23.851Z,9.60
2023-01-19T11:16:27.363Z,8.52
2023-01-19T11:18:39.967Z,10.07
2023-01-19T11:20:44.151Z,10.02
2023-01-19T11:22:48.092Z,8.02
2023-01-19T11:24:51.029Z,8.55
2023-01-19T11:27:03.028Z,10.82
2023-01-19T11:29:05.606Z,8.70
2023-01-19T11:33:23.408Z,9.68
2023-01-19T11:35:36.583Z,10.10
2023-01-19T11:37:41.938Z,10.77
2023-01-19T11:39:51.058Z,9.88
2023-01-19T11:41:55.025Z,10.27
2023-01-19T11:44:10.141Z,10.18
2023-01-19T11:46:13.307Z,10.45
2023-01-19T11:48:24.271Z,12.07
2023-01-19T11:50:26.465Z,9.43
2023-01-19T11:52:36.843Z,9.52
2023-01-19T11:55:05.466Z,9.77
2023-01-19T11:57:13.188Z,8.25
2023-01-19T11:59:15.555Z,10.32
2023-01-19T12:01:43.752Z,11.48
2023-01-19T12:03:49.747Z,11.05
2023-01-19T12:05:53.347Z,10.73
2023-01-19T12:07:55.726Z,9.55
2023-01-19T12:10:04.664Z,12.15
2023-01-19T12:12:27.810Z,10.23
2023-01-19T12:16:33.381Z,12.65
2023-01-19T12:18:44.549Z,9.82
2023-01-19T12:20:50.034Z,10.25
2023-01-19T12:23:12.405Z,9.10
2023-01-19T12:25:25.507Z,10.05
2023-01-19T12:27:37.700Z,8.68
2023-01-19T12:29:41.297Z,9.02
2023-01-19T12:31:44.015Z,8.32
2023-01-19T12:36:14.554Z,9.05
2023-01-19T12:38:25.803Z,8.50
2023-01-19T12:40:29.030Z,10.32
2023-01-19T12:42:31.274Z,10.90
2023-01-19T12:44:34.361Z,8.90
2023-01-19T12:46:38.253Z,9.00
2023-01-19T12:48:41.051Z,8.00
2023-01-19T12:50:46.789Z,9.25
2023-01-19T12:52:51.443Z,8.50
2023-01-19T12:55:02.624Z,8.45
2023-01-19T12:57:10.058Z,4.93
2023-01-19T12:59:26.178Z,3.42
2023-01-19T13:01:28.493Z,3.40
2023-01-19T13:03:30.718Z,3.97
2023-01-19T13:05:33.548Z,2.97
2023-01-19T13:07:54.650Z,3.58
2023-01-19T13:09:57.063Z,4.72
2023-01-19T13:12:11.550Z,2.20
2023-01-19T13:14:13.820Z,2.17
2023-01-19T13:16:18.964Z,2.97
2023-01-19T13:18:25.333Z,2.30
2023-01-19T13:20:29.150Z,2.50
2023-01-19T13:22:49.869Z,4.68
2023-01-19T13:25:09.037Z,2.53
2023-01-19T13:27:12.411Z,6.18
2023-01-19T13:29:16.386Z,6.70
2023-01-19T13:31:19.048Z,4.63
2023-01-19T13:33:23.225Z,6.43
2023-01-19T13:35:25.569Z,4.30
2023-01-19T13:37:36.067Z,4.15
2023-01-19T13:39:44.362Z,6.30
2023-01-19T13:41:47.118Z,7.43
2023-01-19T13:43:50.376Z,6.85
2023-01-19T13:45:53.629Z,5.10
2023-01-19T13:47:57.820Z,6.53
2023-01-19T13:50:01.997Z,6.25
2023-01-19T13:52:23.885Z,5.40
2023-01-19T13:54:26.104Z,4.65
2023-01-19T13:56:29.199Z,5.28
2023-01-19T13:58:32.012Z,6.78
2023-01-19T14:00:34.205Z,4.82
2023-01-19T14:02:36.590Z,6.25
2023-01-19T14:04:38.826Z,5.30
2023-01-19T14:06:45.465Z,5.68
2023-01-19T14:08:47.587Z,4.53
2023-01-19T14:10:52.598Z,5.05
2023-01-19T14:13:04.925Z,4.45
2023-01-19T14:15:12.977Z,4.32
2023-01-19T14:17:21.047Z,5.65
2023-01-19T14:19:23.345Z,5.47
2023-01-19T14:21:25.522Z,6.40
2023-01-19T14:23:43.038Z,4.70
2023-01-19T14:25:45.709Z,6.20
2023-01-19T14:27:47.896Z,4.70
2023-01-19T14:29:53.572Z,4.75
2023-01-19T14:32:01.675Z,4.63
2023-01-19T14:34:03.881Z,6.50
2023-01-19T14:36:17.587Z,4.57
2023-01-19T14:38:20.972Z,7.40
2023-01-19T14:40:24.524Z,6.20
2023-01-19T14:42:28.316Z,7.03
2023-01-19T14:44:32.744Z,6.57
2023-01-19T14:46:35.026Z,7.88
2023-01-19T14:48:37.236Z,6.38
2023-01-19T14:50:42.802Z,6.25
2023-01-19T14:52:59.759Z,6.47
2023-01-19T14:55:06.677Z,6.57
2023-01-19T14:57:14.176Z,6.00
2023-01-19T14:59:16.301Z,5.55
2023-01-19T15:01:18.500Z,4.75
2023-01-19T15:03:21.380Z,6.35
2023-01-19T15:05:25.558Z,6.40
2023-01-19T15:07:28.467Z,4.70
2023-01-19T15:09:30.688Z,7.57
2023-01-19T15:11:34.558Z,7.88
2023-01-19T15:13:37.025Z,5.22
2023-01-19T15:15:39.256Z,4.40
2023-01-19T15:17:41.509Z,6.82
2023-01-19T15:19:43.699Z,7.05
2023-01-19T15:21:46.925Z,4.72
2023-01-19T15:23:49.124Z,4.57
2023-01-19T15:25:51.725Z,5.10
2023-01-19T15:27:54.071Z,4.13
2023-01-19T15:29:56.375Z,4.60
2023-01-19T15:31:58.572Z,6.75
2023-01-19T15:34:00.939Z,5.30
2023-01-19T15:36:03.282Z,8.63
2023-01-19T15:38:05.606Z,4.80
2023-01-19T15:40:08.159Z,6.40
2023-01-19T15:44:12.594Z,8.82
2023-01-19T15:46:18.099Z,5.85
2023-01-19T15:48:22.364Z,6.72
2023-01-19T15:50:25.372Z,5.82
2023-01-19T15:52:27.546Z,6.30
2023-01-19T15:54:29.721Z,8.20
2023-01-19T15:56:32.209Z,5.38
2023-01-19T15:58:34.362Z,5.63
2023-01-19T16:00:36.690Z,7.50
2023-01-19T16:02:38.851Z,6.43
2023-01-19T16:04:41.279Z,7.85
2023-01-19T16:06:43.580Z,7.70
2023-01-19T16:08:45.810Z,7.32
2023-01-19T16:10:48.138Z,11.57
2023-01-19T16:12:50.286Z,10.02
2023-01-19T16:14:52.480Z,8.68
2023-01-19T16:16:54.649Z,6.68
2023-01-19T16:18:57.038Z,7.28
2023-01-19T16:20:59.248Z,6.88
2023-01-19T16:23:16.774Z,9.00
2023-01-19T16:25:19.054Z,7.65
2023-01-19T16:27:21.223Z,9.52
2023-01-19T16:29:23.460Z,9.85
2023-01-19T16:31:25.766Z,10.23
2023-01-19T16:33:28.016Z,6.53
2023-01-19T16:35:30.153Z,6.07
2023-01-19T16:37:32.323Z,5.72
2023-01-19T16:39:34.548Z,6.68
2023-01-19T16:41:36.915Z,7.55
2023-01-19T16:43:39.076Z,6.97
2023-01-19T16:45:58.138Z,8.77
2023-01-19T16:48:00.355Z,6.47
2023-01-19T16:50:02.720Z,7.57
2023-01-19T16:52:05.002Z,8.75
2023-01-19T16:54:07.424Z,7.40
2023-01-19T16:56:10.728Z,7.47
2023-01-19T16:58:12.941Z,7.97
2023-01-19T17:00:15.342Z,7.13
2023-01-19T17:02:17.618Z,6.78
2023-01-19T17:04:20.904Z,14.45
2023-01-19T17:06:24.098Z,13.38
2023-01-19T17:08:26.307Z,14.27
2023-01-19T17:10:28.490Z,11.20
2023-01-19T17:12:32.221Z,17.00
2023-01-19T17:14:34.585Z,11.60
2023-01-19T17:16:36.889Z,12.23
2023-01-19T17:18:39.403Z,14.35
2023-01-19T17:20:41.547Z,13.25
2023-01-19T17:22:43.887Z,12.50
2023-01-19T17:24:47.188Z,16.85
2023-01-19T17:26:49.410Z,16.08
2023-01-19T17:28:51.581Z,16.17
2023-01-19T17:30:53.867Z,76.82
2023-01-19T17:32:56.095Z,26.75
2023-01-19T17:34:58.272Z,19.80
2023-01-19T17:37:03.184Z,16.40
2023-01-19T17:39:06.789Z,10.52
2023-01-19T17:41:15.861Z,11.68
2023-01-19T17:43:18.057Z,8.68
2023-01-19T17:45:20.258Z,7.72
2023-01-19T17:47:25.491Z,11.27
2023-01-19T17:49:27.843Z,11.55
2023-01-19T17:51:30.879Z,8.35
2023-01-19T17:53:33.654Z,8.63
2023-01-19T17:55:36.031Z,12.57
2023-01-19T17:57:38.254Z,13.43
2023-01-19T17:59:43.309Z,8.38
2023-01-19T18:01:46.484Z,8.38
2023-01-19T18:03:48.792Z,7.50
2023-01-19T18:05:54.435Z,7.97
2023-01-19T18:07:56.549Z,10.30
2023-01-19T18:10:00.978Z,7.40
2023-01-19T18:12:03.362Z,7.90
2023-01-19T18:14:06.750Z,9.35
2023-01-19T18:16:10.176Z,9.13
2023-01-19T18:18:12.371Z,8.63
2023-01-19T18:20:14.959Z,8.95
2023-01-19T18:22:17.492Z,8.85
2023-01-19T18:24:19.687Z,10.98
2023-01-19T18:26:22.775Z,8.90
2023-01-19T18:28:24.980Z,8.05
2023-01-19T18:30:27.213Z,11.43
2023-01-19T18:32:29.489Z,10.73
2023-01-19T18:34:31.695Z,9.55
2023-01-19T18:36:34.373Z,9.15
2023-01-19T18:38:36.821Z,7.55
2023-01-19T18:40:40.195Z,9.45
2023-01-19T18:42:42.900Z,8.40
2023-01-19T18:44:45.100Z,10.18
2023-01-19T18:46:47.284Z,9.20
2023-01-19T18:48:49.576Z,8.50
2023-01-19T18:50:51.773Z,8.02
2023-01-19T18:52:54.124Z,9.13
2023-01-19T18:54:56.385Z,9.13
2023-01-19T18:56:58.624Z,10.65
2023-01-19T18:59:02.129Z,15.55
2023-01-19T19:01:04.492Z,12.38
2023-01-19T19:03:10.293Z,12.23
2023-01-19T19:05:12.538Z,11.70
2023-01-19T19:07:14.742Z,16.23
2023-01-19T19:09:16.941Z,11.25
2023-01-19T19:11:19.894Z,14.07
2023-01-19T19:13:22.235Z,16.95
2023-01-19T19:15:24.589Z,13.65
2023-01-19T19:17:26.876Z,18.10
2023-01-19T19:19:29.156Z,17.63
2023-01-19T19:21:31.426Z,15.43
2023-01-19T19:23:33.974Z,16.88
2023-01-19T19:27:38.644Z,16.65
2023-01-19T19:31:43.120Z,16.47
2023-01-19T19:33:45.585Z,15.40
2023-01-19T19:35:48.088Z,17.75
2023-01-19T19:39:53.160Z,17.20
2023-01-19T19:41:55.357Z,18.83
2023-01-19T19:43:57.503Z,16.33
2023-01-19T19:46:02.467Z,16.20
2023-01-19T19:48:04.749Z,16.38
2023-01-19T19:50:07.088Z,15.75
2023-01-19T19:52:09.273Z,15.20
2023-01-19T19:54:11.459Z,14.25
2023-01-19T19:56:13.948Z,17.42
2023-01-19T20:00:18.319Z,15.77
2023-01-19T20:02:20.533Z,15.30
2023-01-19T20:04:23.919Z,10.38
2023-01-19T20:06:27.119Z,13.73
2023-01-19T20:08:29.933Z,14.77
2023-01-19T20:10:34.327Z,14.63
2023-01-19T20:12:36.652Z,12.80
2023-01-19T20:14:39.021Z,14.35
2023-01-19T20:16:41.232Z,13.98
2023-01-19T20:18:44.441Z,14.65
2023-01-19T20:20:46.613Z,15.23
2023-01-19T20:22:48.867Z,15.25
2023-01-19T20:24:51.435Z,15.88
2023-01-19T20:28:59.644Z,17.05
2023-01-19T20:31:09.072Z,18.02
2023-01-19T20:33:11.295Z,16.60
2023-01-19T20:35:13.771Z,19.48
2023-01-19T20:37:16.218Z,17.38
2023-01-19T20:39:19.340Z,16.38
2023-01-19T20:41:22.661Z,14.90
2023-01-19T20:43:24.853Z,15.00
2023-01-19T20:45:27.096Z,20.42
2023-01-19T20:47:29.317Z,15.35
2023-01-19T20:49:31.507Z,18.38
2023-01-19T20:51:34.983Z,13.10
2023-01-19T20:53:37.633Z,20.35
2023-01-19T20:55:39.897Z,15.30
2023-01-19T20:57:42.129Z,15.80
2023-01-19T20:59:44.358Z,17.42
2023-01-19T21:01:46.716Z,17.77
2023-01-19T21:05:51.086Z,18.85
2023-01-19T21:07:53.236Z,17.35
2023-01-19T21:09:55.408Z,16.80
2023-01-19T21:11:57.749Z,16.92
2023-01-19T21:14:00.070Z,16.38
2023-01-19T21:16:02.635Z,21.00
2023-01-19T21:20:07.361Z,18.05
2023-01-19T21:22:09.536Z,18.00
2023-01-19T21:24:11.835Z,15.18
2023-01-19T21:26:14.291Z,17.13
2023-01-19T21:30:19.015Z,21.30
2023-01-19T21:32:21.344Z,17.70
2023-01-19T21:34:23.617Z,16.65
2023-01-19T21:36:26.529Z,16.38
2023-01-19T21:38:32.761Z,17.40
2023-01-19T21:40:34.997Z,15.20
2023-01-19T21:42:37.183Z,16.23
2023-01-19T21:44:39.351Z,20.20
2023-01-19T21:46:41.616Z,18.88
2023-01-19T21:48:43.810Z,24.42
2023-01-19T21:50:46.112Z,15.30
2023-01-19T21:52:48.241Z,17.98
2023-01-19T21:54:50.378Z,15.10
2023-01-19T21:56:52.623Z,15.13
2023-01-19T21:58:56.158Z,18.67
2023-01-19T22:01:02.680Z,13.27
2023-01-19T22:03:05.127Z,18.13
2023-01-19T22:07:09.503Z,15.07
2023-01-19T22:09:11.672Z,16.88
2023-01-19T22:11:15.335Z,14.65
2023-01-19T22:13:17.511Z,15.95
2023-01-19T22:15:19.677Z,14.73
2023-01-19T22:17:21.884Z,14.80
2023-01-19T22:19:24.048Z,14.23
2023-01-19T22:21:27.902Z,16.40
2023-01-19T22:23:30.053Z,15.30
2023-01-19T22:25:33.445Z,16.67
2023-01-19T22:27:37.393Z,15.35
2023-01-19T22:29:39.546Z,15.02
2023-01-19T22:31:43.173Z,13.32
2023-01-19T22:33:45.659Z,15.90
2023-01-19T22:35:47.783Z,13.57
2023-01-19T22:37:49.965Z,13.02
2023-01-19T22:39:53.466Z,13.13
2023-01-19T22:41:55.606Z,13.32
2023-01-19T22:43:58.972Z,12.38
2023-01-19T22:46:01.271Z,11.73
2023-01-19T22:48:03.561Z,10.80
2023-01-19T22:50:05.982Z,15.40
2023-01-19T22:52:08.300Z,11.82
2023-01-19T22:54:11.051Z,13.25
2023-01-19T22:56:14.856Z,10.30
2023-01-19T22:58:17.046Z,12.30
2023-01-19T23:00:19.550Z,14.57
2023-01-19T23:04:23.881Z,13.43
2023-01-19T23:06:27.839Z,15.57
2023-01-19T23:08:29.988Z,12.55
2023-01-19T23:10:33.123Z,13.90
2023-01-19T23:12:35.264Z,12.73
2023-01-19T23:14:37.628Z,13.15
2023-01-19T23:16:39.818Z,14.77
2023-01-19T23:18:42.441Z,12.93
2023-01-19T23:20:44.582Z,10.02
2023-01-19T23:22:46.720Z,11.23
2023-01-19T23:24:48.886Z,10.95
2023-01-19T23:26:51.432Z,11.30
2023-01-19T23:28:57.692Z,11.45
2023-01-19T23:30:59.917Z,11.80
2023-01-19T23:33:02.098Z,11.10
2023-01-19T23:35:04.340Z,12.68
2023-01-19T23:37:06.463Z,15.18
2023-01-19T23:39:12.662Z,11.48
2023-01-19T23:41:14.816Z,14.52
2023-01-19T23:43:16.985Z,11.30
2023-01-19T23:45:19.156Z,13.13
2023-01-19T23:47:21.327Z,12.40
2023-01-19T23:49:23.624Z,13.30
2023-01-19T23:51:27.088Z,12.02
2023-01-19T23:53:29.242Z,10.68
2023-01-19T23:55:31.394Z,12.77
2023-01-19T23:57:33.919Z,11.00
